createdAt,value
2022-12-16T00:01:28.004Z,76.80
2022-12-16T00:03:57.112Z,78.32
2022-12-16T00:06:26.656Z,75.05
2022-12-16T00:08:54.908Z,74.38
2022-12-16T00:11:22.521Z,61.75
2022-12-16T00:13:49.782Z,72.82
2022-12-16T00:16:19.762Z,63.60
2022-12-16T00:18:47.587Z,64.80
2022-12-16T00:21:15.227Z,60.25
2022-12-16T00:23:42.475Z,66.68
2022-12-16T00:26:10.182Z,65.28
2022-12-16T00:28:37.785Z,70.07
2022-12-16T00:31:05.388Z,69.43
2022-12-16T00:33:33.536Z,69.55
2022-12-16T00:36:01.055Z,66.32
2022-12-16T00:38:28.404Z,61.42
2022-12-16T00:40:55.749Z,58.67
2022-12-16T00:43:23.123Z,64.25
2022-12-16T00:45:50.486Z,57.25
2022-12-16T00:48:19.316Z,62.78
2022-12-16T00:50:55.245Z,62.03
2022-12-16T00:53:23.122Z,59.38
2022-12-16T00:55:50.474Z,65.15
2022-12-16T00:58:17.897Z,62.42
2022-12-16T01:00:45.397Z,57.60
2022-12-16T01:03:18.015Z,59.00
2022-12-16T01:05:48.493Z,61.97
2022-12-16T01:08:15.996Z,59.10
2022-12-16T01:10:43.405Z,67.32
2022-12-16T01:13:10.790Z,58.03
2022-12-16T01:15:38.499Z,65.30
2022-12-16T01:18:05.904Z,69.70
2022-12-16T01:20:34.576Z,73.82
2022-12-16T01:23:01.839Z,69.68
2022-12-16T01:25:29.156Z,55.92
2022-12-16T01:27:56.459Z,62.42
2022-12-16T01:30:24.723Z,62.75
2022-12-16T01:32:52.031Z,56.72
2022-12-16T01:35:51.563Z,54.78
2022-12-16T01:38:06.754Z,63.30
2022-12-16T01:40:34.006Z,67.97
2022-12-16T01:43:01.303Z,69.60
2022-12-16T01:45:28.574Z,69.13
2022-12-16T01:47:57.667Z,64.47
2022-12-16T01:50:25.113Z,67.05
2022-12-16T01:52:56.260Z,64.03
2022-12-16T01:55:28.269Z,58.40
2022-12-16T01:58:00.165Z,62.85
2022-12-16T02:00:27.466Z,64.28
2022-12-16T02:02:54.995Z,59.92
2022-12-16T02:05:23.471Z,61.20
2022-12-16T02:08:06.997Z,69.10
2022-12-16T02:10:43.395Z,59.67
2022-12-16T02:13:50.013Z,70.68
2022-12-16T02:16:39.339Z,60.53
2022-12-16T02:19:43.038Z,62.28
2022-12-16T02:22:13.133Z,59.75
2022-12-16T02:25:17.454Z,64.30
2022-12-16T02:27:47.346Z,58.78
2022-12-16T02:30:38.469Z,62.17
2022-12-16T02:33:22.464Z,61.13
2022-12-16T02:35:49.718Z,59.00
2022-12-16T02:38:22.600Z,68.82
2022-12-16T02:41:16.324Z,68.25
2022-12-16T02:43:59.843Z,68.70
2022-12-16T02:46:30.177Z,64.35
2022-12-16T02:48:57.448Z,73.60
2022-12-16T02:51:26.928Z,70.05
2022-12-16T02:53:54.864Z,71.70
2022-12-16T02:56:37.928Z,74.90
2022-12-16T02:59:21.240Z,70.65
2022-12-16T03:01:58.048Z,65.55
2022-12-16T03:04:38.484Z,60.90
2022-12-16T03:07:10.721Z,76.55
2022-12-16T03:09:39.554Z,68.90
2022-12-16T03:12:11.752Z,71.93
2022-12-16T03:14:42.104Z,72.07
2022-12-16T03:17:09.838Z,73.90
2022-12-16T03:19:39.346Z,74.50
2022-12-16T03:22:20.764Z,72.00
2022-12-16T03:24:48.657Z,71.70
2022-12-16T03:27:29.138Z,72.90
2022-12-16T03:30:13.963Z,68.22
2022-12-16T03:35:43.050Z,69.78
2022-12-16T03:38:12.432Z,71.20
2022-12-16T03:40:42.302Z,78.57
2022-12-16T03:43:14.256Z,78.47
2022-12-16T03:45:43.587Z,66.38
2022-12-16T03:48:12.912Z,75.28
2022-12-16T03:50:40.696Z,78.28
2022-12-16T03:53:08.625Z,66.55
2022-12-16T03:55:35.947Z,66.40
2022-12-16T03:58:03.202Z,70.43
2022-12-16T04:00:30.518Z,71.07
2022-12-16T04:02:58.046Z,73.15
2022-12-16T04:05:25.846Z,78.40
2022-12-16T04:07:54.391Z,75.35
2022-12-16T04:10:43.628Z,72.82
2022-12-16T04:13:30.101Z,70.93
2022-12-16T04:16:16.026Z,70.45
2022-12-16T04:19:02.175Z,71.70
2022-12-16T04:21:47.924Z,75.68
2022-12-16T04:24:22.524Z,68.68
2022-12-16T04:27:14.881Z,77.28
2022-12-16T04:30:02.828Z,73.22
2022-12-16T04:32:53.844Z,79.63
2022-12-16T04:35:40.011Z,74.63
2022-12-16T04:38:25.901Z,71.93
2022-12-16T04:41:11.832Z,75.03
2022-12-16T04:43:58.134Z,75.82
2022-12-16T04:46:44.354Z,75.40
2022-12-16T04:49:30.488Z,74.30
2022-12-16T04:52:16.503Z,85.90
2022-12-16T04:55:02.538Z,71.70
2022-12-16T04:57:48.297Z,71.60
2022-12-16T05:00:34.413Z,68.57
2022-12-16T05:03:20.233Z,71.45
2022-12-16T05:06:06.276Z,67.18
2022-12-16T05:08:52.332Z,62.92
2022-12-16T05:11:38.571Z,68.30
2022-12-16T05:14:24.540Z,65.38
2022-12-16T05:17:10.534Z,66.10
2022-12-16T05:19:56.609Z,67.05
2022-12-16T05:22:42.600Z,71.78
2022-12-16T05:25:28.789Z,66.78
2022-12-16T05:28:14.936Z,67.32
2022-12-16T05:31:00.807Z,68.82
2022-12-16T05:33:46.749Z,70.75
2022-12-16T05:36:32.708Z,68.15
2022-12-16T05:39:18.805Z,78.10
2022-12-16T05:42:04.788Z,76.38
2022-12-16T05:44:50.713Z,76.03
2022-12-16T05:47:36.475Z,75.93
2022-12-16T05:50:22.467Z,80.93
2022-12-16T05:53:12.015Z,80.32
2022-12-16T05:55:58.044Z,76.50
2022-12-16T05:58:44.033Z,74.50
2022-12-16T06:01:30.193Z,82.90
2022-12-16T06:04:17.856Z,88.15
2022-12-16T06:07:04.008Z,81.07
2022-12-16T06:09:56.073Z,81.43
2022-12-16T06:12:42.769Z,80.80
2022-12-16T06:15:28.988Z,85.28
2022-12-16T06:18:15.047Z,89.03
2022-12-16T06:21:00.880Z,91.70
2022-12-16T06:23:46.978Z,90.68
2022-12-16T06:26:33.099Z,83.53
2022-12-16T06:29:18.851Z,88.80
2022-12-16T06:32:05.093Z,90.07
2022-12-16T06:34:51.202Z,85.75
2022-12-16T06:37:37.019Z,83.85
2022-12-16T06:40:22.982Z,78.28
2022-12-16T06:43:08.792Z,82.97
2022-12-16T06:45:54.965Z,87.05
2022-12-16T06:48:41.269Z,84.43
2022-12-16T06:51:27.068Z,91.80
2022-12-16T06:54:13.193Z,88.03
2022-12-16T06:56:59.365Z,90.10
2022-12-16T06:59:45.064Z,85.72
2022-12-16T07:02:31.689Z,75.68
2022-12-16T07:05:17.871Z,96.43
2022-12-16T07:08:10.096Z,78.47
2022-12-16T07:11:03.394Z,82.25
2022-12-16T07:14:02.599Z,85.47
2022-12-16T07:16:48.718Z,82.35
2022-12-16T07:19:34.867Z,81.95
2022-12-16T07:22:21.086Z,78.10
2022-12-16T07:25:06.894Z,71.00
2022-12-16T07:27:52.862Z,86.60
2022-12-16T07:30:38.660Z,84.70
2022-12-16T07:33:24.733Z,75.20
2022-12-16T07:36:10.471Z,86.80
2022-12-16T07:38:56.455Z,78.00
2022-12-16T07:41:42.279Z,74.28
2022-12-16T07:44:28.128Z,76.95
2022-12-16T07:47:13.891Z,82.20
2022-12-16T07:49:59.742Z,79.72
2022-12-16T07:52:45.967Z,79.60
2022-12-16T07:55:31.954Z,68.85
2022-12-16T07:58:18.092Z,72.20
2022-12-16T08:01:09.266Z,73.97
2022-12-16T08:03:56.015Z,77.60
2022-12-16T08:06:42.060Z,78.80
2022-12-16T08:09:28.086Z,61.75
2022-12-16T08:12:14.213Z,72.03
2022-12-16T08:14:59.890Z,72.68
2022-12-16T08:17:45.703Z,78.35
2022-12-16T08:20:31.488Z,76.22
2022-12-16T08:23:17.710Z,95.28
2022-12-16T08:26:03.606Z,71.03
2022-12-16T08:28:49.625Z,78.25
2022-12-16T08:31:35.811Z,76.45
2022-12-16T08:34:21.840Z,84.85
2022-12-16T08:37:07.879Z,86.22
2022-12-16T08:40:10.991Z,81.40
2022-12-16T08:43:00.245Z,87.97
2022-12-16T08:45:46.100Z,83.97
2022-12-16T08:48:32.349Z,79.18
2022-12-16T08:51:21.762Z,91.63
2022-12-16T08:54:07.755Z,84.43
2022-12-16T08:56:53.807Z,83.38
2022-12-16T08:59:40.623Z,89.15
2022-12-16T09:02:26.656Z,91.55
2022-12-16T09:05:12.604Z,82.07
2022-12-16T09:07:58.418Z,87.47
2022-12-16T09:10:44.235Z,78.85
2022-12-16T09:13:32.169Z,73.90
2022-12-16T09:16:19.833Z,67.55
2022-12-16T09:19:06.047Z,76.00
2022-12-16T09:21:52.346Z,82.32
2022-12-16T09:24:40.490Z,76.35
2022-12-16T09:27:26.026Z,80.57
2022-12-16T09:30:11.847Z,84.70
2022-12-16T09:33:01.551Z,82.22
2022-12-16T09:35:47.731Z,79.72
2022-12-16T09:38:33.961Z,85.50
2022-12-16T09:41:53.928Z,86.15
2022-12-16T09:45:11.283Z,89.10
2022-12-16T09:48:03.890Z,66.90
2022-12-16T09:50:50.539Z,83.78
2022-12-16T09:53:40.651Z,76.63
2022-12-16T09:56:49.417Z,75.75
2022-12-16T10:00:03.188Z,81.97
2022-12-16T10:02:49.409Z,78.18
2022-12-16T10:05:43.180Z,68.22
2022-12-16T10:08:40.569Z,74.35
2022-12-16T10:11:57.519Z,75.55
2022-12-16T10:14:54.801Z,77.70
2022-12-16T10:17:44.286Z,68.10
2022-12-16T10:20:49.011Z,79.90
2022-12-16T10:23:48.406Z,81.37
2022-12-16T10:26:41.076Z,79.50
2022-12-16T10:29:38.418Z,72.00
2022-12-16T10:32:47.781Z,62.97
2022-12-16T10:35:41.432Z,67.60
2022-12-16T10:38:40.758Z,76.78
2022-12-16T10:41:28.289Z,69.50
2022-12-16T10:44:15.789Z,70.50
2022-12-16T10:47:01.662Z,71.82
2022-12-16T10:49:53.707Z,76.55
2022-12-16T10:52:40.875Z,77.25
2022-12-16T10:55:26.528Z,67.57
2022-12-16T10:58:12.421Z,78.15
2022-12-16T11:01:10.108Z,73.47
2022-12-16T11:03:58.495Z,76.30
2022-12-16T11:06:44.729Z,76.95
2022-12-16T11:09:38.935Z,73.47
2022-12-16T11:12:45.236Z,79.00
2022-12-16T11:15:46.784Z,78.80
2022-12-16T11:18:39.897Z,91.15
2022-12-16T11:21:32.432Z,89.35
2022-12-16T11:24:29.128Z,97.63
2022-12-16T11:27:17.706Z,84.53
2022-12-16T11:30:15.315Z,95.97
2022-12-16T11:33:25.064Z,98.60
2022-12-16T11:36:24.111Z,82.22
2022-12-16T11:39:11.226Z,89.22
2022-12-16T11:42:03.879Z,180.25
2022-12-16T11:45:01.635Z,98.43
2022-12-16T11:47:47.813Z,97.35
2022-12-16T11:50:36.967Z,96.40
2022-12-16T11:53:32.667Z,94.93
2022-12-16T11:56:19.248Z,97.97
2022-12-16T11:59:12.084Z,97.05
2022-12-16T12:02:00.417Z,97.22
2022-12-16T12:04:46.641Z,96.95
2022-12-16T12:07:48.514Z,102.35
2022-12-16T12:10:42.854Z,116.30
2022-12-16T12:13:46.051Z,109.50
2022-12-16T12:17:01.400Z,116.97
2022-12-16T12:20:16.405Z,111.43
2022-12-16T12:23:02.699Z,112.53
2022-12-16T12:26:01.896Z,109.75
2022-12-16T12:29:13.742Z,98.55
2022-12-16T12:32:21.904Z,92.60
2022-12-16T12:35:08.026Z,101.35
2022-12-16T12:38:07.733Z,96.70
2022-12-16T12:41:45.208Z,109.18
2022-12-16T12:45:08.617Z,105.63
2022-12-16T12:48:01.843Z,93.35
2022-12-16T12:50:54.269Z,112.05
2022-12-16T12:54:08.536Z,97.40
2022-12-16T12:56:54.529Z,104.65
2022-12-16T12:59:48.498Z,100.75
2022-12-16T13:02:41.996Z,109.18
2022-12-16T13:05:33.733Z,110.53
2022-12-16T13:08:53.158Z,100.22
2022-12-16T13:11:39.088Z,120.90
2022-12-16T13:14:51.437Z,111.45
2022-12-16T13:17:41.216Z,101.70
2022-12-16T13:20:55.497Z,108.55
2022-12-16T13:23:53.017Z,101.38
2022-12-16T13:26:40.793Z,114.47
2022-12-16T13:29:49.271Z,113.80
2022-12-16T13:32:42.246Z,107.70
2022-12-16T13:35:28.331Z,106.18
2022-12-16T13:38:36.268Z,113.88
2022-12-16T13:41:25.275Z,102.75
2022-12-16T13:44:16.173Z,107.30
2022-12-16T13:47:04.119Z,112.22
2022-12-16T13:49:55.620Z,104.00
2022-12-16T13:52:51.645Z,105.70
2022-12-16T13:56:05.882Z,105.50
2022-12-16T13:58:52.085Z,99.60
2022-12-16T14:01:44.938Z,94.70
2022-12-16T14:04:38.964Z,110.03
2022-12-16T14:07:25.161Z,93.43
2022-12-16T14:10:10.944Z,96.90
2022-12-16T14:13:18.485Z,104.75
2022-12-16T14:16:37.925Z,103.68
2022-12-16T14:19:32.373Z,104.40
2022-12-16T14:22:18.109Z,94.13
2022-12-16T14:25:04.407Z,84.95
2022-12-16T14:27:53.159Z,97.18
2022-12-16T14:30:44.107Z,97.57
2022-12-16T14:33:47.200Z,84.88
2022-12-16T14:36:47.597Z,90.72
2022-12-16T14:39:42.050Z,84.47
2022-12-16T14:42:38.790Z,79.28
2022-12-16T14:45:39.023Z,95.10
2022-12-16T14:48:43.182Z,92.22
2022-12-16T14:51:49.598Z,92.22
2022-12-16T14:54:57.541Z,90.93
2022-12-16T14:57:47.830Z,101.15
2022-12-16T15:00:37.722Z,90.70
2022-12-16T15:03:23.954Z,88.72
2022-12-16T15:06:10.560Z,89.10
2022-12-16T15:09:12.527Z,93.40
2022-12-16T15:11:59.485Z,86.07
2022-12-16T15:14:49.503Z,90.78
2022-12-16T15:18:09.454Z,91.28
2022-12-16T15:21:00.167Z,92.45
2022-12-16T15:23:50.389Z,92.03
2022-12-16T15:26:44.744Z,96.90
2022-12-16T15:29:56.052Z,93.97
2022-12-16T15:32:51.594Z,106.88
2022-12-16T15:35:45.875Z,88.15
2022-12-16T15:38:43.793Z,83.93
2022-12-16T15:41:52.314Z,90.88
2022-12-16T15:44:40.544Z,85.35
2022-12-16T15:47:51.135Z,86.22
2022-12-16T15:50:40.919Z,89.13
2022-12-16T15:53:50.283Z,83.78
2022-12-16T15:56:44.925Z,98.13
2022-12-16T15:59:49.438Z,92.60
2022-12-16T16:02:53.833Z,83.35
2022-12-16T16:05:42.582Z,97.50
2022-12-16T16:08:30.716Z,97.65
2022-12-16T16:11:16.744Z,96.40
2022-12-16T16:14:08.264Z,76.03
2022-12-16T16:16:57.940Z,115.63
2022-12-16T16:19:45.445Z,65.53
2022-12-16T16:22:32.984Z,79.38
2022-12-16T16:25:18.907Z,64.00
2022-12-16T16:28:05.101Z,53.38
2022-12-16T16:30:50.771Z,48.67
2022-12-16T16:33:36.868Z,43.42
2022-12-16T16:36:34.196Z,50.20
2022-12-16T16:39:19.804Z,82.43
2022-12-16T16:42:05.475Z,53.55
2022-12-16T16:44:51.581Z,53.10
2022-12-16T16:47:37.291Z,49.15
2022-12-16T16:50:23.256Z,52.50
2022-12-16T16:53:08.963Z,51.63
2022-12-16T16:55:55.546Z,54.35
2022-12-16T16:58:46.202Z,46.67
2022-12-16T17:01:33.061Z,50.65
2022-12-16T17:04:19.432Z,61.28
2022-12-16T17:07:05.283Z,54.72
2022-12-16T17:09:50.714Z,45.97
2022-12-16T17:12:45.781Z,54.17
2022-12-16T17:15:47.758Z,54.47
2022-12-16T17:18:34.746Z,42.38
2022-12-16T17:21:21.733Z,41.70
2022-12-16T17:24:07.635Z,55.15
2022-12-16T17:26:53.565Z,51.63
2022-12-16T17:29:41.509Z,50.20
2022-12-16T17:32:27.387Z,45.85
2022-12-16T17:35:13.438Z,49.30
2022-12-16T17:37:59.107Z,49.47
2022-12-16T17:40:44.995Z,55.83
2022-12-16T17:43:31.141Z,54.33
2022-12-16T17:46:23.087Z,56.72
2022-12-16T17:49:16.701Z,55.30
2022-12-16T17:52:02.771Z,54.15
2022-12-16T17:54:48.985Z,56.58
2022-12-16T17:57:35.238Z,55.97
2022-12-16T18:00:21.009Z,55.67
2022-12-16T18:03:07.106Z,45.83
2022-12-16T18:05:52.584Z,43.45
2022-12-16T18:08:38.120Z,59.65
2022-12-16T18:11:23.469Z,57.95
2022-12-16T18:14:08.773Z,53.00
2022-12-16T18:16:54.324Z,51.78
2022-12-16T18:19:40.234Z,48.00
2022-12-16T18:22:25.942Z,49.17
2022-12-16T18:25:11.725Z,51.50
2022-12-16T18:27:57.292Z,56.50
2022-12-16T18:30:42.864Z,45.95
2022-12-16T18:33:28.590Z,51.17
2022-12-16T18:36:13.956Z,49.65
2022-12-16T18:38:59.434Z,44.47
2022-12-16T18:41:45.140Z,42.35
2022-12-16T18:44:32.383Z,43.90
2022-12-16T18:47:18.547Z,49.78
2022-12-16T18:50:04.856Z,51.63
2022-12-16T18:52:50.695Z,45.88
2022-12-16T18:55:35.939Z,48.63
2022-12-16T18:58:49.753Z,50.17
2022-12-16T19:01:29.816Z,43.10
2022-12-16T19:04:16.239Z,41.65
2022-12-16T19:07:02.399Z,34.75
2022-12-16T19:09:47.998Z,36.60
2022-12-16T19:12:33.328Z,29.85
2022-12-16T19:15:18.587Z,34.50
2022-12-16T19:18:04.124Z,33.38
2022-12-16T19:20:49.852Z,37.13
2022-12-16T19:23:35.960Z,38.05
2022-12-16T19:26:22.320Z,43.55
2022-12-16T19:29:07.916Z,38.65
2022-12-16T19:31:53.525Z,32.95
2022-12-16T19:34:41.806Z,37.47
2022-12-16T19:37:27.141Z,36.83
2022-12-16T19:40:13.108Z,42.55
2022-12-16T19:42:58.916Z,45.80
2022-12-16T19:45:44.478Z,32.22
2022-12-16T19:48:30.503Z,34.72
2022-12-16T19:51:20.269Z,32.63
2022-12-16T19:54:06.597Z,41.35
2022-12-16T19:56:52.781Z,37.95
2022-12-16T19:59:40.671Z,36.92
2022-12-16T20:02:29.675Z,41.90
2022-12-16T20:05:15.808Z,37.88
2022-12-16T20:08:01.859Z,42.35
2022-12-16T20:10:48.159Z,42.28
2022-12-16T20:13:34.260Z,38.60
2022-12-16T20:16:30.164Z,46.33
2022-12-16T20:19:15.972Z,44.85
2022-12-16T20:22:06.052Z,47.47
2022-12-16T20:24:52.368Z,48.45
2022-12-16T20:27:42.253Z,42.75
2022-12-16T20:30:29.372Z,52.58
2022-12-16T20:33:14.979Z,44.92
2022-12-16T20:36:01.077Z,38.90
2022-12-16T20:38:46.539Z,43.65
2022-12-16T20:41:32.409Z,43.17
2022-12-16T20:44:17.888Z,41.28
2022-12-16T20:47:03.798Z,40.30
2022-12-16T20:49:49.098Z,43.22
2022-12-16T20:52:34.534Z,42.08
2022-12-16T20:55:19.912Z,45.58
2022-12-16T20:58:05.276Z,47.10
2022-12-16T21:01:04.315Z,47.35
2022-12-16T21:03:50.376Z,48.67
2022-12-16T21:06:35.585Z,44.97
2022-12-16T21:09:21.096Z,46.20
2022-12-16T21:12:06.619Z,46.95
2022-12-16T21:14:52.078Z,43.67
2022-12-16T21:17:38.889Z,46.83
2022-12-16T21:20:24.619Z,48.33
2022-12-16T21:23:20.644Z,47.35
2022-12-16T21:26:06.244Z,42.35
2022-12-16T21:28:51.887Z,49.78
2022-12-16T21:31:38.082Z,46.88
2022-12-16T21:34:24.269Z,46.85
2022-12-16T21:37:10.047Z,47.65
2022-12-16T21:39:55.796Z,45.55
2022-12-16T21:42:44.110Z,51.22
2022-12-16T21:45:30.113Z,42.80
2022-12-16T21:48:16.137Z,42.65
2022-12-16T21:51:01.769Z,50.28
2022-12-16T21:54:08.171Z,58.58
2022-12-16T21:56:56.516Z,47.83
2022-12-16T21:59:42.915Z,45.28
2022-12-16T22:02:31.588Z,45.03
2022-12-16T22:05:17.198Z,46.58
2022-12-16T22:08:03.617Z,47.22
2022-12-16T22:10:49.401Z,48.78
2022-12-16T22:13:35.033Z,46.70
2022-12-16T22:16:21.105Z,47.70
2022-12-16T22:19:13.109Z,46.55
2022-12-16T22:21:58.704Z,44.63
2022-12-16T22:24:44.506Z,60.05
2022-12-16T22:27:30.163Z,49.80
2022-12-16T22:30:15.447Z,44.10
2022-12-16T22:33:01.547Z,51.78
2022-12-16T22:35:47.048Z,52.70
2022-12-16T22:38:32.320Z,46.15
2022-12-16T22:41:18.348Z,47.92
2022-12-16T22:44:06.341Z,42.35
2022-12-16T22:46:51.748Z,50.28
2022-12-16T22:49:38.064Z,47.92
2022-12-16T22:52:23.456Z,48.80
2022-12-16T22:55:09.694Z,48.28
2022-12-16T22:57:55.328Z,55.92
2022-12-16T23:00:42.117Z,53.75
2022-12-16T23:03:34.372Z,57.35
2022-12-16T23:06:20.165Z,50.60
2022-12-16T23:09:06.420Z,53.67
2022-12-16T23:11:57.498Z,57.42
2022-12-16T23:14:43.415Z,55.53
2022-12-16T23:17:32.526Z,47.25
2022-12-16T23:20:18.241Z,52.30
2022-12-16T23:23:03.885Z,45.30
2022-12-16T23:25:49.845Z,43.90
2022-12-16T23:28:35.059Z,44.60
2022-12-16T23:31:20.666Z,55.80
2022-12-16T23:34:06.753Z,53.72
2022-12-16T23:36:53.438Z,46.83
2022-12-16T23:39:39.217Z,41.58
2022-12-16T23:42:24.509Z,40.03
2022-12-16T23:45:10.636Z,51.10
2022-12-16T23:48:09.882Z,49.33
2022-12-16T23:50:55.529Z,51.33
2022-12-16T23:53:42.223Z,45.55
2022-12-16T23:56:27.773Z,48.58
2022-12-16T23:59:13.385Z,49.95
